sensor_id;sensor_type;location;lat;lon;timestamp;P1;durP1;ratioP1;P2;durP2;ratioP2
27489;SDS011;14925;51.026;13.752;2023-12-20T00:02:06;6.43;;;5.30;;
27489;SDS011;14925;51.026;13.752;2023-12-20T00:04:32;6.13;;;5.18;;
27489;SDS011;14925;51.026;13.752;2023-12-20T00:06:57;7.75;;;5.82;;
27489;SDS011;14925;51.026;13.752;2023-12-20T00:09:23;6.53;;;4.88;;
27489;SDS011;14925;51.026;13.752;2023-12-20T00:11:48;6.68;;;5.13;;
27489;SDS011;14925;51.026;13.752;2023-12-20T00:14:13;7.85;;;6.18;;
27489;SDS011;14925;51.026;13.752;2023-12-20T00:16:39;6.43;;;4.88;;
27489;SDS011;14925;51.026;13.752;2023-12-20T00:19:04;6.50;;;4.60;;
27489;SDS011;14925;51.026;13.752;2023-12-20T00:21:29;6.68;;;4.57;;
27489;SDS011;14925;51.026;13.752;2023-12-20T00:23:55;6.72;;;5.13;;
27489;SDS011;14925;51.026;13.752;2023-12-20T00:26:20;5.57;;;4.47;;
27489;SDS011;14925;51.026;13.752;2023-12-20T00:28:46;6.15;;;5.05;;
27489;SDS011;14925;51.026;13.752;2023-12-20T00:31:11;6.00;;;4.72;;
27489;SDS011;14925;51.026;13.752;2023-12-20T00:33:36;6.20;;;4.75;;
27489;SDS011;14925;51.026;13.752;2023-12-20T00:36:02;8.05;;;4.45;;
27489;SDS011;14925;51.026;13.752;2023-12-20T00:38:27;5.15;;;4.30;;
27489;SDS011;14925;51.026;13.752;2023-12-20T00:40:53;5.32;;;3.70;;
27489;SDS011;14925;51.026;13.752;2023-12-20T00:43:18;7.63;;;4.90;;
27489;SDS011;14925;51.026;13.752;2023-12-20T00:45:43;6.30;;;4.88;;
27489;SDS011;14925;51.026;13.752;2023-12-20T00:48:09;7.65;;;4.03;;
27489;SDS011;14925;51.026;13.752;2023-12-20T00:50:34;5.07;;;3.50;;
27489;SDS011;14925;51.026;13.752;2023-12-20T00:53:00;4.03;;;3.53;;
27489;SDS011;14925;51.026;13.752;2023-12-20T00:55:25;4.90;;;3.70;;
27489;SDS011;14925;51.026;13.752;2023-12-20T00:57:50;5.90;;;3.78;;
27489;SDS011;14925;51.026;13.752;2023-12-20T01:00:16;5.90;;;3.70;;
27489;SDS011;14925;51.026;13.752;2023-12-20T01:02:41;5.65;;;3.88;;
27489;SDS011;14925;51.026;13.752;2023-12-20T01:05:07;5.43;;;3.53;;
27489;SDS011;14925;51.026;13.752;2023-12-20T01:07:34;4.35;;;3.60;;
27489;SDS011;14925;51.026;13.752;2023-12-20T01:09:59;5.65;;;3.55;;
27489;SDS011;14925;51.026;13.752;2023-12-20T01:12:25;4.72;;;3.30;;
27489;SDS011;14925;51.026;13.752;2023-12-20T01:14:50;3.75;;;2.95;;
27489;SDS011;14925;51.026;13.752;2023-12-20T01:17:15;3.20;;;2.78;;
27489;SDS011;14925;51.026;13.752;2023-12-20T01:19:41;3.47;;;2.58;;
27489;SDS011;14925;51.026;13.752;2023-12-20T01:22:06;2.80;;;2.42;;
27489;SDS011;14925;51.026;13.752;2023-12-20T01:24:31;4.53;;;3.08;;
27489;SDS011;14925;51.026;13.752;2023-12-20T01:26:57;3.67;;;2.70;;
27489;SDS011;14925;51.026;13.752;2023-12-20T01:29:22;4.93;;;2.50;;
27489;SDS011;14925;51.026;13.752;2023-12-20T01:31:48;4.20;;;2.85;;
27489;SDS011;14925;51.026;13.752;2023-12-20T01:34:13;3.25;;;2.90;;
27489;SDS011;14925;51.026;13.752;2023-12-20T01:36:38;2.67;;;2.47;;
27489;SDS011;14925;51.026;13.752;2023-12-20T01:39:04;2.90;;;2.55;;
27489;SDS011;14925;51.026;13.752;2023-12-20T01:41:29;2.92;;;2.30;;
27489;SDS011;14925;51.026;13.752;2023-12-20T01:43:54;2.30;;;2.05;;
27489;SDS011;14925;51.026;13.752;2023-12-20T01:46:20;2.97;;;2.25;;
27489;SDS011;14925;51.026;13.752;2023-12-20T01:48:46;3.45;;;2.33;;
27489;SDS011;14925;51.026;13.752;2023-12-20T01:51:12;2.95;;;2.50;;
27489;SDS011;14925;51.026;13.752;2023-12-20T01:53:38;2.80;;;2.33;;
27489;SDS011;14925;51.026;13.752;2023-12-20T01:56:04;2.45;;;2.25;;
27489;SDS011;14925;51.026;13.752;2023-12-20T01:58:30;3.22;;;2.45;;
27489;SDS011;14925;51.026;13.752;2023-12-20T02:00:56;3.00;;;2.60;;
27489;SDS011;14925;51.026;13.752;2023-12-20T02:03:22;2.97;;;2.30;;
27489;SDS011;14925;51.026;13.752;2023-12-20T02:05:47;2.83;;;2.20;;
27489;SDS011;14925;51.026;13.752;2023-12-20T02:08:13;2.72;;;1.85;;
27489;SDS011;14925;51.026;13.752;2023-12-20T02:10:38;2.00;;;1.80;;
27489;SDS011;14925;51.026;13.752;2023-12-20T02:13:05;2.95;;;1.90;;
27489;SDS011;14925;51.026;13.752;2023-12-20T02:15:31;2.47;;;2.28;;
27489;SDS011;14925;51.026;13.752;2023-12-20T02:17:56;2.25;;;1.60;;
27489;SDS011;14925;51.026;13.752;2023-12-20T02:20:22;2.22;;;1.95;;
27489;SDS011;14925;51.026;13.752;2023-12-20T02:22:47;2.15;;;1.88;;
27489;SDS011;14925;51.026;13.752;2023-12-20T02:25:12;2.15;;;1.95;;
27489;SDS011;14925;51.026;13.752;2023-12-20T02:27:38;2.00;;;1.60;;
27489;SDS011;14925;51.026;13.752;2023-12-20T02:30:05;1.90;;;1.55;;
27489;SDS011;14925;51.026;13.752;2023-12-20T02:32:31;2.13;;;1.70;;
27489;SDS011;14925;51.026;13.752;2023-12-20T02:34:56;3.42;;;1.80;;
27489;SDS011;14925;51.026;13.752;2023-12-20T02:37:22;1.88;;;1.65;;
27489;SDS011;14925;51.026;13.752;2023-12-20T02:39:47;1.67;;;1.58;;
27489;SDS011;14925;51.026;13.752;2023-12-20T02:42:13;1.77;;;1.50;;
27489;SDS011;14925;51.026;13.752;2023-12-20T02:44:38;1.50;;;1.40;;
27489;SDS011;14925;51.026;13.752;2023-12-20T02:47:04;1.50;;;1.40;;
27489;SDS011;14925;51.026;13.752;2023-12-20T02:49:29;2.70;;;1.45;;
27489;SDS011;14925;51.026;13.752;2023-12-20T02:51:54;1.70;;;1.20;;
27489;SDS011;14925;51.026;13.752;2023-12-20T02:54:20;1.55;;;1.27;;
27489;SDS011;14925;51.026;13.752;2023-12-20T02:56:46;1.60;;;1.50;;
27489;SDS011;14925;51.026;13.752;2023-12-20T02:59:12;2.30;;;1.38;;
27489;SDS011;14925;51.026;13.752;2023-12-20T03:01:44;1.63;;;1.50;;
27489;SDS011;14925;51.026;13.752;2023-12-20T03:04:10;1.23;;;1.13;;
27489;SDS011;14925;51.026;13.752;2023-12-20T03:06:36;1.30;;;1.20;;
27489;SDS011;14925;51.026;13.752;2023-12-20T03:09:02;1.20;;;1.08;;
27489;SDS011;14925;51.026;13.752;2023-12-20T03:11:27;1.20;;;1.10;;
27489;SDS011;14925;51.026;13.752;2023-12-20T03:13:53;1.63;;;1.10;;
27489;SDS011;14925;51.026;13.752;2023-12-20T03:16:19;1.10;;;1.00;;
27489;SDS011;14925;51.026;13.752;2023-12-20T03:18:47;1.30;;;1.20;;
27489;SDS011;14925;51.026;13.752;2023-12-20T03:21:12;1.13;;;1.02;;
27489;SDS011;14925;51.026;13.752;2023-12-20T03:23:38;1.30;;;1.20;;
27489;SDS011;14925;51.026;13.752;2023-12-20T03:26:03;1.20;;;1.10;;
27489;SDS011;14925;51.026;13.752;2023-12-20T03:28:32;1.23;;;1.13;;
27489;SDS011;14925;51.026;13.752;2023-12-20T03:30:57;2.10;;;1.20;;
27489;SDS011;14925;51.026;13.752;2023-12-20T03:33:23;1.35;;;1.25;;
27489;SDS011;14925;51.026;13.752;2023-12-20T03:35:48;1.10;;;1.00;;
27489;SDS011;14925;51.026;13.752;2023-12-20T03:38:13;1.23;;;1.13;;
27489;SDS011;14925;51.026;13.752;2023-12-20T03:40:39;1.75;;;1.38;;
27489;SDS011;14925;51.026;13.752;2023-12-20T03:43:04;1.35;;;1.13;;
27489;SDS011;14925;51.026;13.752;2023-12-20T03:45:29;2.85;;;1.10;;
27489;SDS011;14925;51.026;13.752;2023-12-20T03:47:55;0.82;;;0.82;;
27489;SDS011;14925;51.026;13.752;2023-12-20T03:50:24;1.20;;;1.10;;
27489;SDS011;14925;51.026;13.752;2023-12-20T03:52:50;1.48;;;1.33;;
27489;SDS011;14925;51.026;13.752;2023-12-20T03:55:15;1.45;;;1.20;;
27489;SDS011;14925;51.026;13.752;2023-12-20T03:57:41;1.05;;;1.00;;
27489;SDS011;14925;51.026;13.752;2023-12-20T04:00:10;1.00;;;0.90;;
27489;SDS011;14925;51.026;13.752;2023-12-20T04:02:39;0.93;;;0.90;;
27489;SDS011;14925;51.026;13.752;2023-12-20T04:05:05;1.10;;;0.95;;
27489;SDS011;14925;51.026;13.752;2023-12-20T04:07:31;1.55;;;1.10;;
27489;SDS011;14925;51.026;13.752;2023-12-20T04:09:57;1.60;;;1.00;;
27489;SDS011;14925;51.026;13.752;2023-12-20T04:12:22;0.80;;;0.80;;
27489;SDS011;14925;51.026;13.752;2023-12-20T04:14:48;1.08;;;0.90;;
27489;SDS011;14925;51.026;13.752;2023-12-20T04:17:13;1.10;;;1.00;;
27489;SDS011;14925;51.026;13.752;2023-12-20T04:19:40;1.10;;;1.00;;
27489;SDS011;14925;51.026;13.752;2023-12-20T04:22:06;1.10;;;1.00;;
27489;SDS011;14925;51.026;13.752;2023-12-20T04:24:31;1.38;;;1.00;;
27489;SDS011;14925;51.026;13.752;2023-12-20T04:26:56;1.42;;;1.05;;
27489;SDS011;14925;51.026;13.752;2023-12-20T04:29:22;0.70;;;0.70;;
27489;SDS011;14925;51.026;13.752;2023-12-20T04:31:47;1.10;;;1.00;;
27489;SDS011;14925;51.026;13.752;2023-12-20T04:34:12;1.23;;;1.00;;
27489;SDS011;14925;51.026;13.752;2023-12-20T04:36:38;1.17;;;1.08;;
27489;SDS011;14925;51.026;13.752;2023-12-20T04:39:03;1.33;;;1.23;;
27489;SDS011;14925;51.026;13.752;2023-12-20T04:41:29;1.25;;;1.10;;
27489;SDS011;14925;51.026;13.752;2023-12-20T04:43:54;1.23;;;1.08;;
27489;SDS011;14925;51.026;13.752;2023-12-20T04:46:19;1.10;;;1.00;;
27489;SDS011;14925;51.026;13.752;2023-12-20T04:48:45;1.30;;;1.20;;
27489;SDS011;14925;51.026;13.752;2023-12-20T04:51:10;1.17;;;1.08;;
27489;SDS011;14925;51.026;13.752;2023-12-20T04:53:35;1.40;;;1.30;;
27489;SDS011;14925;51.026;13.752;2023-12-20T04:56:01;1.20;;;1.10;;
27489;SDS011;14925;51.026;13.752;2023-12-20T04:58:26;1.73;;;1.10;;
27489;SDS011;14925;51.026;13.752;2023-12-20T05:00:52;1.10;;;1.00;;
27489;SDS011;14925;51.026;13.752;2023-12-20T05:03:17;1.35;;;1.20;;
27489;SDS011;14925;51.026;13.752;2023-12-20T05:05:43;2.25;;;1.10;;
27489;SDS011;14925;51.026;13.752;2023-12-20T05:08:08;1.13;;;1.02;;
27489;SDS011;14925;51.026;13.752;2023-12-20T05:10:33;1.38;;;1.20;;
27489;SDS011;14925;51.026;13.752;2023-12-20T05:12:59;1.42;;;1.20;;
27489;SDS011;14925;51.026;13.752;2023-12-20T05:15:25;1.25;;;1.13;;
27489;SDS011;14925;51.026;13.752;2023-12-20T05:17:50;1.30;;;1.20;;
27489;SDS011;14925;51.026;13.752;2023-12-20T05:20:16;1.23;;;1.05;;
27489;SDS011;14925;51.026;13.752;2023-12-20T05:22:41;0.85;;;0.85;;
27489;SDS011;14925;51.026;13.752;2023-12-20T05:25:06;1.30;;;1.20;;
27489;SDS011;14925;51.026;13.752;2023-12-20T05:27:32;0.95;;;0.95;;
27489;SDS011;14925;51.026;13.752;2023-12-20T05:29:57;2.20;;;1.00;;
27489;SDS011;14925;51.026;13.752;2023-12-20T05:32:23;1.20;;;1.10;;
27489;SDS011;14925;51.026;13.752;2023-12-20T05:34:48;0.90;;;0.90;;
27489;SDS011;14925;51.026;13.752;2023-12-20T05:37:17;2.10;;;1.15;;
27489;SDS011;14925;51.026;13.752;2023-12-20T05:39:45;1.50;;;1.10;;
27489;SDS011;14925;51.026;13.752;2023-12-20T05:42:11;1.15;;;1.05;;
27489;SDS011;14925;51.026;13.752;2023-12-20T05:44:36;2.22;;;1.05;;
27489;SDS011;14925;51.026;13.752;2023-12-20T05:47:02;1.00;;;0.90;;
27489;SDS011;14925;51.026;13.752;2023-12-20T05:49:27;1.63;;;0.90;;
27489;SDS011;14925;51.026;13.752;2023-12-20T05:51:53;1.05;;;0.90;;
27489;SDS011;14925;51.026;13.752;2023-12-20T05:54:19;0.95;;;0.95;;
27489;SDS011;14925;51.026;13.752;2023-12-20T05:56:44;1.05;;;0.90;;
27489;SDS011;14925;51.026;13.752;2023-12-20T05:59:09;1.95;;;0.80;;
27489;SDS011;14925;51.026;13.752;2023-12-20T06:01:35;1.05;;;0.90;;
27489;SDS011;14925;51.026;13.752;2023-12-20T06:04:00;1.30;;;0.90;;
27489;SDS011;14925;51.026;13.752;2023-12-20T06:06:28;0.98;;;0.90;;
27489;SDS011;14925;51.026;13.752;2023-12-20T06:08:54;1.30;;;1.20;;
27489;SDS011;14925;51.026;13.752;2023-12-20T06:11:19;1.20;;;1.10;;
27489;SDS011;14925;51.026;13.752;2023-12-20T06:13:45;1.33;;;1.00;;
27489;SDS011;14925;51.026;13.752;2023-12-20T06:16:10;1.85;;;1.20;;
27489;SDS011;14925;51.026;13.752;2023-12-20T06:18:35;3.95;;;1.05;;
27489;SDS011;14925;51.026;13.752;2023-12-20T06:21:02;2.08;;;1.40;;
27489;SDS011;14925;51.026;13.752;2023-12-20T06:23:27;1.70;;;1.50;;
27489;SDS011;14925;51.026;13.752;2023-12-20T06:25:53;1.52;;;1.42;;
27489;SDS011;14925;51.026;13.752;2023-12-20T06:28:21;1.65;;;1.42;;
27489;SDS011;14925;51.026;13.752;2023-12-20T06:30:46;1.20;;;1.10;;
27489;SDS011;14925;51.026;13.752;2023-12-20T06:33:14;1.45;;;1.23;;
27489;SDS011;14925;51.026;13.752;2023-12-20T06:35:39;1.55;;;1.45;;
27489;SDS011;14925;51.026;13.752;2023-12-20T06:38:05;1.88;;;1.70;;
27489;SDS011;14925;51.026;13.752;2023-12-20T06:40:30;2.25;;;1.95;;
27489;SDS011;14925;51.026;13.752;2023-12-20T06:42:55;2.35;;;1.85;;
27489;SDS011;14925;51.026;13.752;2023-12-20T06:45:21;3.75;;;2.00;;
27489;SDS011;14925;51.026;13.752;2023-12-20T06:47:46;2.38;;;1.85;;
27489;SDS011;14925;51.026;13.752;2023-12-20T06:50:11;3.05;;;1.80;;
27489;SDS011;14925;51.026;13.752;2023-12-20T06:52:37;2.42;;;2.13;;
27489;SDS011;14925;51.026;13.752;2023-12-20T06:55:02;2.55;;;2.10;;
27489;SDS011;14925;51.026;13.752;2023-12-20T06:57:29;2.55;;;2.30;;
27489;SDS011;14925;51.026;13.752;2023-12-20T06:59:54;2.55;;;2.08;;
27489;SDS011;14925;51.026;13.752;2023-12-20T07:02:19;3.85;;;2.55;;
27489;SDS011;14925;51.026;13.752;2023-12-20T07:04:46;2.60;;;2.08;;
27489;SDS011;14925;51.026;13.752;2023-12-20T07:07:13;4.50;;;2.55;;
27489;SDS011;14925;51.026;13.752;2023-12-20T07:09:39;2.53;;;2.10;;
27489;SDS011;14925;51.026;13.752;2023-12-20T07:12:07;3.30;;;2.70;;
27489;SDS011;14925;51.026;13.752;2023-12-20T07:14:33;3.15;;;2.42;;
27489;SDS011;14925;51.026;13.752;2023-12-20T07:16:58;2.63;;;2.42;;
27489;SDS011;14925;51.026;13.752;2023-12-20T07:19:24;3.40;;;2.75;;
27489;SDS011;14925;51.026;13.752;2023-12-20T07:21:49;3.78;;;2.60;;
27489;SDS011;14925;51.026;13.752;2023-12-20T07:24:14;3.78;;;2.70;;
27489;SDS011;14925;51.026;13.752;2023-12-20T07:26:40;3.10;;;2.80;;
27489;SDS011;14925;51.026;13.752;2023-12-20T07:29:05;2.65;;;2.33;;
27489;SDS011;14925;51.026;13.752;2023-12-20T07:31:31;3.63;;;2.90;;
27489;SDS011;14925;51.026;13.752;2023-12-20T07:33:59;3.38;;;3.08;;
27489;SDS011;14925;51.026;13.752;2023-12-20T07:36:25;2.92;;;2.60;;
27489;SDS011;14925;51.026;13.752;2023-12-20T07:38:50;3.30;;;2.88;;
27489;SDS011;14925;51.026;13.752;2023-12-20T07:41:16;3.50;;;3.20;;
27489;SDS011;14925;51.026;13.752;2023-12-20T07:43:41;4.45;;;2.67;;
27489;SDS011;14925;51.026;13.752;2023-12-20T07:46:07;4.10;;;3.17;;
27489;SDS011;14925;51.026;13.752;2023-12-20T07:48:36;3.33;;;2.95;;
27489;SDS011;14925;51.026;13.752;2023-12-20T07:51:06;5.55;;;3.30;;
27489;SDS011;14925;51.026;13.752;2023-12-20T07:53:33;6.55;;;2.95;;
27489;SDS011;14925;51.026;13.752;2023-12-20T07:55:59;3.15;;;2.85;;
27489;SDS011;14925;51.026;13.752;2023-12-20T07:58:24;4.15;;;3.60;;
27489;SDS011;14925;51.026;13.752;2023-12-20T08:00:49;6.13;;;3.70;;
27489;SDS011;14925;51.026;13.752;2023-12-20T08:03:15;6.63;;;4.00;;
27489;SDS011;14925;51.026;13.752;2023-12-20T08:05:41;5.38;;;3.50;;
27489;SDS011;14925;51.026;13.752;2023-12-20T08:08:06;7.72;;;4.13;;
27489;SDS011;14925;51.026;13.752;2023-12-20T08:10:32;6.70;;;3.67;;
27489;SDS011;14925;51.026;13.752;2023-12-20T08:12:57;6.28;;;3.92;;
27489;SDS011;14925;51.026;13.752;2023-12-20T08:15:22;5.45;;;3.33;;
27489;SDS011;14925;51.026;13.752;2023-12-20T08:17:48;5.32;;;3.30;;
27489;SDS011;14925;51.026;13.752;2023-12-20T08:20:15;3.90;;;2.53;;
27489;SDS011;14925;51.026;13.752;2023-12-20T08:22:41;5.40;;;3.15;;
27489;SDS011;14925;51.026;13.752;2023-12-20T08:25:07;7.35;;;2.40;;
27489;SDS011;14925;51.026;13.752;2023-12-20T08:27:33;3.45;;;2.30;;
27489;SDS011;14925;51.026;13.752;2023-12-20T08:29:59;4.68;;;2.60;;
27489;SDS011;14925;51.026;13.752;2023-12-20T08:32:27;7.68;;;2.72;;
27489;SDS011;14925;51.026;13.752;2023-12-20T08:34:53;4.25;;;2.40;;
27489;SDS011;14925;51.026;13.752;2023-12-20T08:37:21;5.28;;;2.45;;
27489;SDS011;14925;51.026;13.752;2023-12-20T08:39:46;5.55;;;2.47;;
27489;SDS011;14925;51.026;13.752;2023-12-20T08:42:12;3.53;;;2.10;;
27489;SDS011;14925;51.026;13.752;2023-12-20T08:44:37;6.20;;;1.90;;
27489;SDS011;14925;51.026;13.752;2023-12-20T08:47:02;4.25;;;2.10;;
27489;SDS011;14925;51.026;13.752;2023-12-20T08:49:28;6.15;;;2.10;;
27489;SDS011;14925;51.026;13.752;2023-12-20T08:51:54;5.85;;;2.20;;
27489;SDS011;14925;51.026;13.752;2023-12-20T08:54:19;5.60;;;1.92;;
27489;SDS011;14925;51.026;13.752;2023-12-20T08:56:47;5.50;;;1.83;;
27489;SDS011;14925;51.026;13.752;2023-12-20T08:59:13;7.07;;;1.67;;
27489;SDS011;14925;51.026;13.752;2023-12-20T09:01:39;6.93;;;1.88;;
27489;SDS011;14925;51.026;13.752;2023-12-20T09:04:04;8.77;;;1.55;;
27489;SDS011;14925;51.026;13.752;2023-12-20T09:06:31;5.32;;;1.40;;
27489;SDS011;14925;51.026;13.752;2023-12-20T09:08:56;3.38;;;1.35;;
27489;SDS011;14925;51.026;13.752;2023-12-20T09:11:22;2.72;;;1.17;;
27489;SDS011;14925;51.026;13.752;2023-12-20T09:13:47;6.15;;;1.52;;
27489;SDS011;14925;51.026;13.752;2023-12-20T09:16:16;2.95;;;1.30;;
27489;SDS011;14925;51.026;13.752;2023-12-20T09:18:41;9.23;;;1.65;;
27489;SDS011;14925;51.026;13.752;2023-12-20T09:21:07;7.78;;;1.50;;
27489;SDS011;14925;51.026;13.752;2023-12-20T09:23:33;5.47;;;1.40;;
27489;SDS011;14925;51.026;13.752;2023-12-20T09:25:58;4.20;;;1.55;;
27489;SDS011;14925;51.026;13.752;2023-12-20T09:28:23;6.60;;;1.60;;
27489;SDS011;14925;51.026;13.752;2023-12-20T09:30:49;7.07;;;1.60;;
27489;SDS011;14925;51.026;13.752;2023-12-20T09:33:14;6.28;;;1.92;;
27489;SDS011;14925;51.026;13.752;2023-12-20T09:35:41;7.25;;;1.80;;
27489;SDS011;14925;51.026;13.752;2023-12-20T09:38:09;4.88;;;1.50;;
27489;SDS011;14925;51.026;13.752;2023-12-20T09:40:35;4.60;;;1.60;;
27489;SDS011;14925;51.026;13.752;2023-12-20T09:43:04;4.63;;;1.45;;
27489;SDS011;14925;51.026;13.752;2023-12-20T09:45:35;5.13;;;1.80;;
27489;SDS011;14925;51.026;13.752;2023-12-20T09:48:01;6.00;;;1.50;;
27489;SDS011;14925;51.026;13.752;2023-12-20T09:50:27;5.25;;;1.60;;
27489;SDS011;14925;51.026;13.752;2023-12-20T09:52:55;4.32;;;1.70;;
27489;SDS011;14925;51.026;13.752;2023-12-20T09:55:23;7.28;;;1.77;;
27489;SDS011;14925;51.026;13.752;2023-12-20T09:57:50;6.50;;;1.50;;
27489;SDS011;14925;51.026;13.752;2023-12-20T10:00:15;4.10;;;1.67;;
27489;SDS011;14925;51.026;13.752;2023-12-20T10:02:45;2.90;;;1.58;;
27489;SDS011;14925;51.026;13.752;2023-12-20T10:05:32;9.45;;;1.48;;
27489;SDS011;14925;51.026;13.752;2023-12-20T10:07:58;7.82;;;1.88;;
27489;SDS011;14925;51.026;13.752;2023-12-20T10:10:24;4.38;;;1.30;;
27489;SDS011;14925;51.026;13.752;2023-12-20T10:13:06;7.03;;;1.77;;
27489;SDS011;14925;51.026;13.752;2023-12-20T10:15:34;5.47;;;1.65;;
27489;SDS011;14925;51.026;13.752;2023-12-20T10:18:00;4.95;;;1.73;;
27489;SDS011;14925;51.026;13.752;2023-12-20T10:20:29;4.68;;;1.52;;
27489;SDS011;14925;51.026;13.752;2023-12-20T10:22:55;6.78;;;1.92;;
27489;SDS011;14925;51.026;13.752;2023-12-20T10:25:21;3.22;;;1.20;;
27489;SDS011;14925;51.026;13.752;2023-12-20T10:27:47;6.50;;;1.75;;
27489;SDS011;14925;51.026;13.752;2023-12-20T10:30:13;7.05;;;1.20;;
27489;SDS011;14925;51.026;13.752;2023-12-20T10:32:39;5.50;;;1.52;;
27489;SDS011;14925;51.026;13.752;2023-12-20T10:35:05;4.97;;;1.52;;
27489;SDS011;14925;51.026;13.752;2023-12-20T10:37:34;6.45;;;1.50;;
27489;SDS011;14925;51.026;13.752;2023-12-20T10:40:00;5.70;;;1.70;;
27489;SDS011;14925;51.026;13.752;2023-12-20T10:42:28;6.28;;;1.52;;
27489;SDS011;14925;51.026;13.752;2023-12-20T10:44:54;8.00;;;1.70;;
27489;SDS011;14925;51.026;13.752;2023-12-20T10:47:20;6.55;;;1.48;;
27489;SDS011;14925;51.026;13.752;2023-12-20T10:49:46;7.15;;;2.13;;
27489;SDS011;14925;51.026;13.752;2023-12-20T10:52:12;4.68;;;1.42;;
27489;SDS011;14925;51.026;13.752;2023-12-20T10:54:38;4.38;;;1.75;;
27489;SDS011;14925;51.026;13.752;2023-12-20T10:57:05;5.15;;;1.55;;
27489;SDS011;14925;51.026;13.752;2023-12-20T10:59:30;7.88;;;1.83;;
27489;SDS011;14925;51.026;13.752;2023-12-20T11:01:58;6.93;;;1.85;;
27489;SDS011;14925;51.026;13.752;2023-12-20T11:04:36;5.03;;;1.50;;
27489;SDS011;14925;51.026;13.752;2023-12-20T11:07:15;5.25;;;1.75;;
27489;SDS011;14925;51.026;13.752;2023-12-20T11:09:47;7.25;;;1.65;;
27489;SDS011;14925;51.026;13.752;2023-12-20T11:12:33;6.07;;;1.65;;
27489;SDS011;14925;51.026;13.752;2023-12-20T11:15:02;6.18;;;1.42;;
27489;SDS011;14925;51.026;13.752;2023-12-20T11:17:29;6.15;;;1.63;;
27489;SDS011;14925;51.026;13.752;2023-12-20T11:22:22;4.50;;;1.38;;
27489;SDS011;14925;51.026;13.752;2023-12-20T11:24:50;9.38;;;1.80;;
27489;SDS011;14925;51.026;13.752;2023-12-20T11:27:18;5.90;;;1.60;;
27489;SDS011;14925;51.026;13.752;2023-12-20T11:29:58;7.30;;;1.52;;
27489;SDS011;14925;51.026;13.752;2023-12-20T11:34:54;7.80;;;2.05;;
27489;SDS011;14925;51.026;13.752;2023-12-20T11:37:29;6.55;;;1.85;;
27489;SDS011;14925;51.026;13.752;2023-12-20T11:40:02;7.18;;;1.52;;
27489;SDS011;14925;51.026;13.752;2023-12-20T11:42:33;8.55;;;1.77;;
27489;SDS011;14925;51.026;13.752;2023-12-20T11:45:36;4.80;;;1.70;;
27489;SDS011;14925;51.026;13.752;2023-12-20T11:47:56;6.97;;;1.73;;
27489;SDS011;14925;51.026;13.752;2023-12-20T11:50:22;9.15;;;1.77;;
27489;SDS011;14925;51.026;13.752;2023-12-20T11:52:54;7.03;;;1.80;;
27489;SDS011;14925;51.026;13.752;2023-12-20T11:55:20;7.70;;;1.85;;
27489;SDS011;14925;51.026;13.752;2023-12-20T11:57:51;6.40;;;1.80;;
27489;SDS011;14925;51.026;13.752;2023-12-20T12:00:17;8.05;;;1.95;;
27489;SDS011;14925;51.026;13.752;2023-12-20T12:02:58;4.72;;;1.77;;
27489;SDS011;14925;51.026;13.752;2023-12-20T12:05:23;6.18;;;2.05;;
27489;SDS011;14925;51.026;13.752;2023-12-20T12:07:49;4.70;;;1.83;;
27489;SDS011;14925;51.026;13.752;2023-12-20T12:10:14;4.47;;;1.60;;
27489;SDS011;14925;51.026;13.752;2023-12-20T12:12:40;6.50;;;1.60;;
27489;SDS011;14925;51.026;13.752;2023-12-20T12:15:05;10.25;;;2.00;;
27489;SDS011;14925;51.026;13.752;2023-12-20T12:17:31;6.63;;;1.98;;
27489;SDS011;14925;51.026;13.752;2023-12-20T12:20:03;5.80;;;1.83;;
27489;SDS011;14925;51.026;13.752;2023-12-20T12:22:34;3.25;;;1.45;;
27489;SDS011;14925;51.026;13.752;2023-12-20T12:25:11;4.63;;;1.50;;
27489;SDS011;14925;51.026;13.752;2023-12-20T12:27:39;5.45;;;2.03;;
27489;SDS011;14925;51.026;13.752;2023-12-20T12:30:05;7.65;;;1.75;;
27489;SDS011;14925;51.026;13.752;2023-12-20T12:32:34;5.70;;;1.83;;
27489;SDS011;14925;51.026;13.752;2023-12-20T12:35:02;6.78;;;1.73;;
27489;SDS011;14925;51.026;13.752;2023-12-20T12:37:28;5.50;;;1.45;;
27489;SDS011;14925;51.026;13.752;2023-12-20T12:39:56;7.10;;;1.75;;
27489;SDS011;14925;51.026;13.752;2023-12-20T12:42:22;5.53;;;1.33;;
27489;SDS011;14925;51.026;13.752;2023-12-20T12:44:50;5.57;;;1.63;;
27489;SDS011;14925;51.026;13.752;2023-12-20T12:47:16;5.22;;;1.48;;
27489;SDS011;14925;51.026;13.752;2023-12-20T12:49:41;8.68;;;1.55;;
27489;SDS011;14925;51.026;13.752;2023-12-20T12:52:06;5.60;;;2.08;;
27489;SDS011;14925;51.026;13.752;2023-12-20T12:54:32;5.32;;;1.50;;
27489;SDS011;14925;51.026;13.752;2023-12-20T12:57:01;7.65;;;1.75;;
27489;SDS011;14925;51.026;13.752;2023-12-20T12:59:29;7.13;;;1.73;;
27489;SDS011;14925;51.026;13.752;2023-12-20T13:01:55;5.78;;;1.73;;
27489;SDS011;14925;51.026;13.752;2023-12-20T13:04:20;7.63;;;1.90;;
27489;SDS011;14925;51.026;13.752;2023-12-20T13:06:46;5.88;;;1.60;;
27489;SDS011;14925;51.026;13.752;2023-12-20T13:09:12;5.63;;;1.80;;
27489;SDS011;14925;51.026;13.752;2023-12-20T13:11:37;5.28;;;1.60;;
27489;SDS011;14925;51.026;13.752;2023-12-20T13:14:02;3.10;;;1.40;;
27489;SDS011;14925;51.026;13.752;2023-12-20T13:16:28;8.68;;;1.98;;
27489;SDS011;14925;51.026;13.752;2023-12-20T13:18:54;7.97;;;1.52;;
27489;SDS011;14925;51.026;13.752;2023-12-20T13:21:24;9.00;;;1.88;;
27489;SDS011;14925;51.026;13.752;2023-12-20T13:23:49;8.20;;;1.98;;
27489;SDS011;14925;51.026;13.752;2023-12-20T13:26:14;5.75;;;1.50;;
27489;SDS011;14925;51.026;13.752;2023-12-20T13:28:40;6.65;;;1.70;;
27489;SDS011;14925;51.026;13.752;2023-12-20T13:31:05;4.82;;;1.80;;
27489;SDS011;14925;51.026;13.752;2023-12-20T13:33:31;9.35;;;1.90;;
27489;SDS011;14925;51.026;13.752;2023-12-20T13:35:56;7.80;;;1.63;;
27489;SDS011;14925;51.026;13.752;2023-12-20T13:38:23;5.75;;;1.70;;
27489;SDS011;14925;51.026;13.752;2023-12-20T13:40:51;3.97;;;1.60;;
27489;SDS011;14925;51.026;13.752;2023-12-20T13:43:16;8.30;;;1.80;;
27489;SDS011;14925;51.026;13.752;2023-12-20T13:45:45;7.53;;;1.85;;
27489;SDS011;14925;51.026;13.752;2023-12-20T13:48:12;8.20;;;1.60;;
27489;SDS011;14925;51.026;13.752;2023-12-20T13:50:38;7.82;;;1.70;;
27489;SDS011;14925;51.026;13.752;2023-12-20T13:53:03;7.28;;;1.77;;
27489;SDS011;14925;51.026;13.752;2023-12-20T13:55:29;6.47;;;1.60;;
27489;SDS011;14925;51.026;13.752;2023-12-20T13:57:55;8.82;;;1.90;;
27489;SDS011;14925;51.026;13.752;2023-12-20T14:00:21;7.80;;;1.75;;
27489;SDS011;14925;51.026;13.752;2023-12-20T14:02:47;6.05;;;1.60;;
27489;SDS011;14925;51.026;13.752;2023-12-20T14:05:13;6.55;;;1.80;;
27489;SDS011;14925;51.026;13.752;2023-12-20T14:07:42;7.65;;;1.95;;
27489;SDS011;14925;51.026;13.752;2023-12-20T14:10:10;5.55;;;1.60;;
27489;SDS011;14925;51.026;13.752;2023-12-20T14:12:39;4.93;;;1.70;;
27489;SDS011;14925;51.026;13.752;2023-12-20T14:15:04;6.53;;;1.58;;
27489;SDS011;14925;51.026;13.752;2023-12-20T14:17:35;6.07;;;1.60;;
27489;SDS011;14925;51.026;13.752;2023-12-20T14:20:07;5.05;;;1.33;;
27489;SDS011;14925;51.026;13.752;2023-12-20T14:22:33;6.10;;;1.42;;
27489;SDS011;14925;51.026;13.752;2023-12-20T14:24:59;4.63;;;1.50;;
27489;SDS011;14925;51.026;13.752;2023-12-20T14:27:24;5.47;;;1.48;;
27489;SDS011;14925;51.026;13.752;2023-12-20T14:29:52;5.00;;;1.60;;
27489;SDS011;14925;51.026;13.752;2023-12-20T14:32:18;5.40;;;1.50;;
27489;SDS011;14925;51.026;13.752;2023-12-20T14:34:44;5.68;;;1.50;;